createdAt,value
2023-05-07T00:03:02.251Z,2.50
2023-05-07T00:07:04.590Z,2.58
2023-05-07T00:11:06.317Z,2.00
2023-05-07T00:15:08.930Z,2.17
2023-05-07T00:19:10.887Z,2.17
2023-05-07T00:23:12.556Z,2.22
2023-05-07T00:27:14.275Z,2.50
2023-05-07T00:31:15.941Z,2.45
2023-05-07T00:35:17.624Z,3.00
2023-05-07T00:39:19.393Z,2.20
2023-05-07T00:43:21.465Z,2.62
2023-05-07T00:47:23.249Z,2.70
2023-05-07T00:51:26.105Z,2.03
2023-05-07T00:55:27.863Z,2.30
2023-05-07T00:59:29.531Z,2.67
2023-05-07T01:03:31.298Z,2.35
2023-05-07T01:07:34.730Z,2.08
2023-05-07T01:11:36.476Z,2.30
2023-05-07T01:15:38.683Z,2.12
2023-05-07T01:19:40.365Z,2.45
2023-05-07T01:23:42.711Z,2.60
2023-05-07T01:27:44.402Z,2.55
2023-05-07T01:31:47.192Z,2.53
2023-05-07T01:35:52.274Z,2.35
2023-05-07T01:39:54.609Z,2.50
2023-05-07T01:43:57.598Z,2.60
2023-05-07T01:48:00.440Z,2.60
2023-05-07T01:52:02.892Z,2.53
2023-05-07T01:56:04.922Z,2.90
2023-05-07T02:00:07.363Z,2.67
2023-05-07T02:04:09.062Z,2.50
2023-05-07T02:08:10.863Z,2.30
2023-05-07T02:12:12.574Z,2.65
2023-05-07T02:16:15.387Z,2.90
2023-05-07T02:20:17.224Z,2.60
2023-05-07T02:24:18.878Z,2.72
2023-05-07T02:28:20.699Z,3.40
2023-05-07T02:32:24.005Z,2.50
2023-05-07T02:36:25.661Z,2.28
2023-05-07T02:40:27.340Z,3.03
2023-05-07T02:44:32.218Z,2.20
2023-05-07T02:48:34.479Z,2.40
2023-05-07T02:52:36.137Z,2.37
2023-05-07T02:56:37.798Z,2.85
2023-05-07T03:00:39.431Z,2.08
2023-05-07T03:04:41.153Z,2.47
2023-05-07T03:08:42.789Z,2.20
2023-05-07T03:12:44.603Z,2.92
2023-05-07T03:16:46.237Z,2.70
2023-05-07T03:20:49.449Z,3.08
2023-05-07T03:24:51.674Z,2.70
2023-05-07T03:28:53.704Z,3.10
2023-05-07T03:32:55.375Z,2.62
2023-05-07T03:36:57.050Z,2.95
2023-05-07T03:40:58.795Z,2.60
2023-05-07T03:45:00.558Z,2.35
2023-05-07T03:49:02.227Z,2.45
2023-05-07T03:53:03.834Z,2.90
2023-05-07T03:57:05.525Z,2.97
2023-05-07T04:01:08.300Z,2.45
2023-05-07T04:05:10.354Z,3.10
2023-05-07T04:09:12.014Z,2.67
2023-05-07T04:13:14.169Z,3.45
2023-05-07T04:17:15.923Z,2.90
2023-05-07T04:21:21.783Z,2.85
2023-05-07T04:25:27.583Z,2.95
2023-05-07T04:29:29.584Z,2.50
2023-05-07T04:33:31.319Z,2.22
2023-05-07T04:37:33.669Z,2.33
2023-05-07T04:41:37.403Z,2.40
2023-05-07T04:45:41.442Z,2.70
2023-05-07T04:49:43.219Z,2.85
2023-05-07T04:53:44.834Z,2.20
2023-05-07T04:57:46.446Z,2.50
2023-05-07T05:01:48.207Z,1.98
2023-05-07T05:05:53.800Z,2.10
2023-05-07T05:09:56.438Z,2.28
2023-05-07T05:13:58.149Z,2.60
2023-05-07T05:17:59.821Z,2.50
2023-05-07T05:22:02.061Z,1.80
2023-05-07T05:26:03.711Z,2.47
2023-05-07T05:30:06.593Z,2.42
2023-05-07T05:34:08.258Z,2.37
2023-05-07T05:38:09.959Z,2.12
2023-05-07T05:42:11.618Z,2.20
2023-05-07T05:46:13.458Z,1.92
2023-05-07T05:50:15.396Z,1.98
2023-05-07T05:54:18.271Z,2.33
2023-05-07T05:58:19.983Z,2.30
2023-05-07T06:02:21.751Z,1.87
2023-05-07T06:06:23.530Z,1.48
2023-05-07T06:10:25.339Z,1.87
2023-05-07T06:14:27.069Z,2.12
2023-05-07T06:18:28.750Z,1.60
2023-05-07T06:22:30.546Z,1.42
2023-05-07T06:26:32.182Z,1.35
2023-05-07T06:30:33.810Z,1.60
2023-05-07T06:34:35.531Z,1.40
2023-05-07T06:38:37.283Z,1.70
2023-05-07T06:42:39.119Z,1.40
2023-05-07T06:46:40.933Z,1.40
2023-05-07T06:50:43.093Z,1.35
2023-05-07T06:54:44.741Z,1.45
2023-05-07T06:58:46.416Z,1.35
2023-05-07T07:02:48.288Z,1.20
2023-05-07T07:06:49.988Z,1.30
2023-05-07T07:10:51.737Z,1.70
2023-05-07T07:14:55.171Z,1.48
2023-05-07T07:18:56.950Z,1.30
2023-05-07T07:22:58.597Z,1.40
2023-05-07T07:27:00.258Z,1.40
2023-05-07T07:31:01.893Z,1.30
2023-05-07T07:35:03.778Z,1.40
2023-05-07T07:39:05.433Z,1.17
2023-05-07T07:43:07.508Z,1.30
2023-05-07T07:47:09.235Z,1.15
2023-05-07T07:51:11.412Z,1.17
2023-05-07T07:55:13.435Z,1.25
2023-05-07T07:59:18.582Z,1.02
2023-05-07T08:03:20.681Z,1.23
2023-05-07T08:07:23.626Z,1.20
2023-05-07T08:11:26.275Z,1.10
2023-05-07T08:15:27.985Z,1.10
2023-05-07T08:19:29.675Z,1.40
2023-05-07T08:23:31.488Z,1.20
2023-05-07T08:27:33.235Z,1.20
2023-05-07T08:31:34.870Z,1.12
2023-05-07T08:35:36.514Z,1.02
2023-05-07T08:39:38.124Z,1.30
2023-05-07T08:43:42.324Z,0.88
2023-05-07T08:47:47.340Z,1.10
2023-05-07T08:51:49.521Z,1.12
2023-05-07T08:55:52.077Z,0.88
2023-05-07T08:59:53.833Z,0.80
2023-05-07T09:03:55.853Z,1.00
2023-05-07T09:08:01.008Z,0.95
2023-05-07T09:12:04.616Z,1.33
2023-05-07T09:16:13.637Z,0.98
2023-05-07T09:20:15.526Z,0.80
2023-05-07T09:24:17.902Z,1.37
2023-05-07T09:28:19.621Z,0.80
2023-05-07T09:32:21.314Z,0.80
2023-05-07T09:36:23.602Z,0.80
2023-05-07T09:40:27.218Z,1.08
2023-05-07T09:44:28.920Z,0.90
2023-05-07T09:48:30.961Z,1.05
2023-05-07T09:52:36.130Z,0.70
2023-05-07T09:56:38.828Z,0.88
2023-05-07T10:00:42.011Z,0.70
2023-05-07T10:04:44.329Z,0.85
2023-05-07T10:08:46.329Z,0.90
2023-05-07T10:12:48.480Z,1.05
2023-05-07T10:16:50.583Z,0.75
2023-05-07T10:20:53.831Z,0.70
2023-05-07T10:25:00.473Z,0.80
2023-05-07T10:29:13.248Z,0.73
2023-05-07T10:33:17.770Z,0.88
2023-05-07T10:37:19.631Z,0.80
2023-05-07T10:41:22.127Z,0.77
2023-05-07T10:45:24.522Z,0.70
2023-05-07T10:49:26.304Z,0.88
2023-05-07T10:53:28.564Z,0.62
2023-05-07T10:57:36.434Z,0.68
2023-05-07T11:01:55.232Z,0.55
2023-05-07T11:06:17.052Z,0.90
2023-05-07T11:10:18.806Z,0.80
2023-05-07T11:14:43.180Z,0.70
2023-05-07T11:18:52.994Z,0.80
2023-05-07T11:22:56.665Z,0.80
2023-05-07T11:26:59.341Z,0.75
2023-05-07T11:31:01.258Z,0.70
2023-05-07T11:35:03.271Z,0.60
2023-05-07T11:39:04.941Z,0.65
2023-05-07T11:43:12.745Z,0.77
2023-05-07T11:47:21.514Z,0.65
2023-05-07T11:51:26.849Z,0.75
2023-05-07T11:55:28.934Z,1.02
2023-05-07T11:59:30.673Z,0.88
2023-05-07T12:03:36.197Z,0.90
2023-05-07T12:07:38.491Z,0.80
2023-05-07T12:11:40.836Z,0.80
2023-05-07T12:15:43.356Z,0.90
2023-05-07T12:19:46.071Z,1.05
2023-05-07T12:23:48.738Z,1.10
2023-05-07T12:27:54.364Z,1.30
2023-05-07T12:31:56.142Z,0.95
2023-05-07T12:35:57.888Z,1.58
2023-05-07T12:40:11.169Z,1.62
2023-05-07T12:44:16.039Z,1.50
2023-05-07T12:48:18.414Z,1.30
2023-05-07T12:52:21.081Z,1.40
2023-05-07T12:56:22.748Z,1.37
2023-05-07T13:00:39.456Z,1.90
2023-05-07T13:04:41.153Z,1.57
2023-05-07T13:08:46.263Z,2.47
2023-05-07T13:12:47.962Z,2.10
2023-05-07T13:16:50.287Z,1.90
2023-05-07T13:20:52.190Z,3.87
2023-05-07T13:24:53.924Z,5.22
2023-05-07T13:28:55.669Z,6.20
2023-05-07T13:32:57.627Z,6.10
2023-05-07T13:36:59.342Z,6.57
2023-05-07T13:41:00.975Z,7.10
2023-05-07T13:45:05.943Z,7.10
2023-05-07T13:49:07.687Z,8.50
2023-05-07T13:53:09.534Z,12.05
2023-05-07T13:57:11.211Z,14.95
2023-05-07T14:01:13.164Z,15.13
2023-05-07T14:05:14.868Z,15.93
2023-05-07T14:09:16.521Z,15.75
2023-05-07T14:13:18.706Z,15.85
2023-05-07T14:17:21.179Z,17.48
2023-05-07T14:21:22.986Z,19.83
2023-05-07T14:25:24.753Z,17.25
2023-05-07T14:29:26.645Z,16.65
2023-05-07T14:33:28.246Z,17.27
2023-05-07T14:37:29.974Z,16.55
2023-05-07T14:41:32.642Z,17.50
2023-05-07T14:45:34.315Z,17.35
2023-05-07T14:49:36.888Z,16.15
2023-05-07T14:53:38.770Z,15.63
2023-05-07T14:57:41.286Z,15.00
2023-05-07T15:01:46.242Z,14.10
2023-05-07T15:05:47.968Z,14.35
2023-05-07T15:09:49.569Z,14.77
2023-05-07T15:13:51.263Z,14.20
2023-05-07T15:17:52.958Z,25.05
2023-05-07T15:21:54.640Z,18.00
2023-05-07T15:25:56.358Z,20.20
2023-05-07T15:29:58.541Z,17.87
2023-05-07T15:34:01.430Z,17.55
2023-05-07T15:38:03.892Z,15.00
2023-05-07T15:42:05.667Z,17.08
2023-05-07T15:46:07.351Z,14.00
2023-05-07T15:50:09.424Z,16.67
2023-05-07T15:54:11.165Z,17.70
2023-05-07T15:58:12.988Z,17.23
2023-05-07T16:02:14.763Z,17.87
2023-05-07T16:06:16.554Z,16.27
2023-05-07T16:10:18.530Z,13.80
2023-05-07T16:14:20.253Z,14.65
2023-05-07T16:18:21.890Z,15.65
2023-05-07T16:22:25.516Z,14.98
2023-05-07T16:26:27.314Z,10.43
2023-05-07T16:30:29.038Z,11.88
2023-05-07T16:34:32.246Z,10.40
2023-05-07T16:38:34.341Z,10.35
2023-05-07T16:42:36.449Z,11.98
2023-05-07T16:46:38.500Z,10.20
2023-05-07T16:50:41.384Z,8.50
2023-05-07T16:54:43.061Z,7.03
2023-05-07T16:58:44.702Z,8.15
2023-05-07T17:02:46.870Z,8.15
2023-05-07T17:06:48.732Z,8.23
2023-05-07T17:10:50.345Z,8.50
2023-05-07T17:14:52.258Z,6.70
2023-05-07T17:18:53.910Z,8.93
2023-05-07T17:22:55.664Z,8.95
2023-05-07T17:26:57.363Z,9.00
2023-05-07T17:30:59.072Z,8.13
2023-05-07T17:35:01.229Z,7.28
2023-05-07T17:39:04.260Z,7.72
2023-05-07T17:43:05.999Z,7.85
2023-05-07T17:47:08.317Z,7.07
2023-05-07T17:51:10.210Z,7.18
2023-05-07T17:55:12.167Z,6.90
2023-05-07T17:59:13.955Z,6.85
2023-05-07T18:03:16.091Z,6.93
2023-05-07T18:07:17.871Z,7.60
2023-05-07T18:11:19.813Z,7.20
2023-05-07T18:15:21.540Z,7.53
2023-05-07T18:19:23.256Z,9.00
2023-05-07T18:23:25.373Z,8.43
2023-05-07T18:27:27.013Z,9.05
2023-05-07T18:31:28.822Z,9.90
2023-05-07T18:35:31.542Z,9.85
2023-05-07T18:39:34.809Z,9.65
2023-05-07T18:43:36.581Z,8.95
2023-05-07T18:47:38.262Z,9.23
2023-05-07T18:51:39.961Z,9.38
2023-05-07T18:55:41.678Z,10.15
2023-05-07T18:59:43.452Z,11.60
2023-05-07T19:03:45.113Z,11.50
2023-05-07T19:07:50.899Z,9.80
2023-05-07T19:11:52.510Z,10.10
2023-05-07T19:15:54.952Z,12.10
2023-05-07T19:19:56.697Z,11.80
2023-05-07T19:23:58.363Z,10.63
2023-05-07T19:28:00.097Z,10.75
2023-05-07T19:32:02.510Z,10.82
2023-05-07T19:36:04.544Z,8.98
2023-05-07T19:40:07.036Z,9.23
2023-05-07T19:44:08.920Z,9.48
2023-05-07T19:48:10.856Z,9.75
2023-05-07T19:52:12.531Z,9.23
2023-05-07T19:56:14.812Z,9.20
2023-05-07T20:00:17.087Z,9.10
2023-05-07T20:04:19.179Z,10.85
2023-05-07T20:08:20.874Z,10.07
2023-05-07T20:12:22.638Z,9.43
2023-05-07T20:16:24.421Z,10.70
2023-05-07T20:20:26.097Z,10.90
2023-05-07T20:24:27.981Z,10.05
2023-05-07T20:28:29.619Z,11.23
2023-05-07T20:32:31.280Z,11.02
2023-05-07T20:36:33.010Z,10.27
2023-05-07T20:40:37.549Z,9.32
2023-05-07T20:44:39.262Z,11.02
2023-05-07T20:48:40.926Z,9.70
2023-05-07T20:52:42.712Z,9.85
2023-05-07T20:56:44.432Z,10.65
2023-05-07T21:00:46.094Z,9.90
2023-05-07T21:04:51.160Z,9.90
2023-05-07T21:08:53.246Z,10.63
2023-05-07T21:12:54.925Z,9.43
2023-05-07T21:16:56.949Z,10.35
2023-05-07T21:20:58.687Z,10.07
2023-05-07T21:25:01.094Z,9.63
2023-05-07T21:29:02.902Z,9.73
2023-05-07T21:33:07.004Z,9.45
2023-05-07T21:37:09.976Z,9.93
2023-05-07T21:41:12.388Z,10.75
2023-05-07T21:45:14.107Z,10.55
2023-05-07T21:49:15.778Z,10.13
2023-05-07T21:53:17.498Z,10.00
2023-05-07T21:57:19.439Z,9.77
2023-05-07T22:01:21.322Z,9.98
2023-05-07T22:05:23.177Z,9.02
2023-05-07T22:09:24.925Z,8.68
2023-05-07T22:13:26.802Z,10.63
2023-05-07T22:17:28.605Z,10.98
2023-05-07T22:21:31.208Z,10.50
2023-05-07T22:25:36.618Z,10.20
2023-05-07T22:29:38.589Z,10.48
2023-05-07T22:33:40.431Z,11.85
2023-05-07T22:37:42.124Z,11.77
2023-05-07T22:41:43.831Z,10.48
2023-05-07T22:45:45.643Z,11.73
2023-05-07T22:49:47.321Z,11.63
2023-05-07T22:53:49.099Z,11.43
2023-05-07T22:57:50.756Z,12.68
2023-05-07T23:01:52.473Z,10.63
2023-05-07T23:05:54.162Z,10.80
2023-05-07T23:09:55.956Z,10.60
2023-05-07T23:13:57.692Z,10.90
2023-05-07T23:17:59.464Z,10.13
2023-05-07T23:22:01.273Z,10.02
2023-05-07T23:26:03.093Z,11.10
2023-05-07T23:30:05.416Z,10.30
2023-05-07T23:34:07.201Z,9.65
2023-05-07T23:38:09.037Z,10.43
2023-05-07T23:42:10.799Z,11.27
2023-05-07T23:46:12.561Z,10.02
2023-05-07T23:50:14.427Z,9.85
2023-05-07T23:54:16.234Z,9.75
2023-05-07T23:58:17.985Z,10.88
